sensor_id;sensor_type;location;lat;lon;timestamp;P1;durP1;ratioP1;P2;durP2;ratioP2
26963;SDS011;14521;48.148;-1.656;2022-10-22T00:01:22;4.13;;;0.90;;
26963;SDS011;14521;48.148;-1.656;2022-10-22T00:04:46;4.35;;;0.73;;
26963;SDS011;14521;48.148;-1.656;2022-10-22T00:08:08;2.65;;;0.85;;
26963;SDS011;14521;48.148;-1.656;2022-10-22T00:11:31;4.45;;;1.15;;
26963;SDS011;14521;48.148;-1.656;2022-10-22T00:14:53;6.43;;;0.90;;
26963;SDS011;14521;48.148;-1.656;2022-10-22T00:18:15;6.13;;;0.80;;
26963;SDS011;14521;48.148;-1.656;2022-10-22T00:21:37;3.08;;;0.80;;
26963;SDS011;14521;48.148;-1.656;2022-10-22T00:24:59;2.92;;;0.80;;
26963;SDS011;14521;48.148;-1.656;2022-10-22T00:28:22;3.95;;;0.63;;
26963;SDS011;14521;48.148;-1.656;2022-10-22T00:31:44;3.33;;;0.80;;
26963;SDS011;14521;48.148;-1.656;2022-10-22T00:35:10;3.20;;;0.80;;
26963;SDS011;14521;48.148;-1.656;2022-10-22T00:38:33;6.85;;;1.33;;
26963;SDS011;14521;48.148;-1.656;2022-10-22T00:41:55;4.72;;;1.50;;
26963;SDS011;14521;48.148;-1.656;2022-10-22T00:45:20;6.18;;;1.35;;
26963;SDS011;14521;48.148;-1.656;2022-10-22T00:48:46;4.32;;;1.40;;
26963;SDS011;14521;48.148;-1.656;2022-10-22T00:52:08;5.45;;;1.00;;
26963;SDS011;14521;48.148;-1.656;2022-10-22T00:55:32;2.88;;;0.80;;
26963;SDS011;14521;48.148;-1.656;2022-10-22T00:58:56;3.05;;;0.98;;
26963;SDS011;14521;48.148;-1.656;2022-10-22T01:02:21;4.40;;;0.93;;
26963;SDS011;14521;48.148;-1.656;2022-10-22T01:05:59;5.80;;;1.15;;
26963;SDS011;14521;48.148;-1.656;2022-10-22T01:09:36;1.60;;;0.70;;
26963;SDS011;14521;48.148;-1.656;2022-10-22T01:13:14;5.88;;;0.90;;
26963;SDS011;14521;48.148;-1.656;2022-10-22T01:16:48;4.43;;;1.15;;
26963;SDS011;14521;48.148;-1.656;2022-10-22T01:24:33;4.63;;;1.00;;
26963;SDS011;14521;48.148;-1.656;2022-10-22T01:31:31;4.72;;;1.13;;
26963;SDS011;14521;48.148;-1.656;2022-10-22T01:35:06;4.53;;;0.80;;
26963;SDS011;14521;48.148;-1.656;2022-10-22T01:38:32;4.63;;;1.13;;
26963;SDS011;14521;48.148;-1.656;2022-10-22T01:41:55;3.78;;;0.93;;
26963;SDS011;14521;48.148;-1.656;2022-10-22T01:45:18;3.47;;;0.77;;
26963;SDS011;14521;48.148;-1.656;2022-10-22T01:48:59;6.63;;;1.35;;
26963;SDS011;14521;48.148;-1.656;2022-10-22T02:00:22;5.30;;;1.33;;
26963;SDS011;14521;48.148;-1.656;2022-10-22T02:03:47;4.35;;;1.00;;
26963;SDS011;14521;48.148;-1.656;2022-10-22T02:07:18;6.72;;;1.27;;
26963;SDS011;14521;48.148;-1.656;2022-10-22T02:10:43;4.57;;;1.35;;
26963;SDS011;14521;48.148;-1.656;2022-10-22T02:14:08;8.90;;;0.82;;
26963;SDS011;14521;48.148;-1.656;2022-10-22T02:17:33;5.13;;;1.40;;
26963;SDS011;14521;48.148;-1.656;2022-10-22T02:20:57;4.57;;;1.30;;
26963;SDS011;14521;48.148;-1.656;2022-10-22T02:24:21;3.25;;;0.95;;
26963;SDS011;14521;48.148;-1.656;2022-10-22T02:27:45;4.32;;;1.00;;
26963;SDS011;14521;48.148;-1.656;2022-10-22T02:31:13;5.20;;;0.85;;
26963;SDS011;14521;48.148;-1.656;2022-10-22T02:34:48;1.95;;;0.70;;
26963;SDS011;14521;48.148;-1.656;2022-10-22T02:38:11;4.20;;;1.10;;
26963;SDS011;14521;48.148;-1.656;2022-10-22T02:41:35;4.55;;;0.90;;
26963;SDS011;14521;48.148;-1.656;2022-10-22T02:44:58;5.00;;;0.95;;
26963;SDS011;14521;48.148;-1.656;2022-10-22T02:48:20;4.88;;;1.40;;
26963;SDS011;14521;48.148;-1.656;2022-10-22T02:51:42;5.70;;;1.40;;
26963;SDS011;14521;48.148;-1.656;2022-10-22T02:55:05;5.18;;;1.42;;
26963;SDS011;14521;48.148;-1.656;2022-10-22T02:58:27;5.53;;;0.85;;
26963;SDS011;14521;48.148;-1.656;2022-10-22T03:01:49;4.15;;;0.68;;
26963;SDS011;14521;48.148;-1.656;2022-10-22T03:05:11;3.08;;;0.80;;
26963;SDS011;14521;48.148;-1.656;2022-10-22T03:08:34;6.07;;;1.13;;
26963;SDS011;14521;48.148;-1.656;2022-10-22T03:11:56;3.75;;;1.05;;
26963;SDS011;14521;48.148;-1.656;2022-10-22T03:15:18;5.65;;;1.00;;
26963;SDS011;14521;48.148;-1.656;2022-10-22T03:18:41;5.78;;;1.02;;
26963;SDS011;14521;48.148;-1.656;2022-10-22T03:22:04;5.15;;;0.95;;
26963;SDS011;14521;48.148;-1.656;2022-10-22T03:25:30;4.22;;;1.00;;
26963;SDS011;14521;48.148;-1.656;2022-10-22T03:28:55;8.13;;;1.20;;
26963;SDS011;14521;48.148;-1.656;2022-10-22T03:32:17;6.63;;;1.20;;
26963;SDS011;14521;48.148;-1.656;2022-10-22T03:35:41;4.85;;;1.00;;
26963;SDS011;14521;48.148;-1.656;2022-10-22T03:39:06;3.25;;;1.20;;
26963;SDS011;14521;48.148;-1.656;2022-10-22T03:42:28;7.55;;;1.40;;
26963;SDS011;14521;48.148;-1.656;2022-10-22T03:45:51;6.75;;;1.10;;
26963;SDS011;14521;48.148;-1.656;2022-10-22T03:49:13;4.78;;;1.23;;
26963;SDS011;14521;48.148;-1.656;2022-10-22T03:52:38;4.97;;;0.98;;
26963;SDS011;14521;48.148;-1.656;2022-10-22T03:56:01;8.02;;;0.90;;
26963;SDS011;14521;48.148;-1.656;2022-10-22T03:59:23;3.40;;;0.75;;
26963;SDS011;14521;48.148;-1.656;2022-10-22T04:02:46;3.88;;;0.82;;
26963;SDS011;14521;48.148;-1.656;2022-10-22T04:06:10;4.07;;;1.08;;
26963;SDS011;14521;48.148;-1.656;2022-10-22T04:12:55;5.97;;;1.20;;
26963;SDS011;14521;48.148;-1.656;2022-10-22T04:16:18;2.45;;;0.80;;
26963;SDS011;14521;48.148;-1.656;2022-10-22T04:19:42;6.55;;;2.00;;
26963;SDS011;14521;48.148;-1.656;2022-10-22T04:23:04;4.45;;;1.17;;
26963;SDS011;14521;48.148;-1.656;2022-10-22T04:26:27;3.38;;;0.75;;
26963;SDS011;14521;48.148;-1.656;2022-10-22T04:29:49;3.65;;;1.20;;
26963;SDS011;14521;48.148;-1.656;2022-10-22T04:33:11;2.35;;;0.80;;
26963;SDS011;14521;48.148;-1.656;2022-10-22T04:36:33;4.82;;;1.10;;
26963;SDS011;14521;48.148;-1.656;2022-10-22T04:39:55;6.78;;;1.13;;
26963;SDS011;14521;48.148;-1.656;2022-10-22T04:43:19;3.10;;;0.70;;
26963;SDS011;14521;48.148;-1.656;2022-10-22T04:46:41;4.45;;;1.05;;
26963;SDS011;14521;48.148;-1.656;2022-10-22T04:50:03;4.90;;;1.10;;
26963;SDS011;14521;48.148;-1.656;2022-10-22T04:53:26;5.25;;;0.80;;
26963;SDS011;14521;48.148;-1.656;2022-10-22T04:56:48;6.18;;;1.20;;
26963;SDS011;14521;48.148;-1.656;2022-10-22T05:00:10;7.20;;;1.20;;
26963;SDS011;14521;48.148;-1.656;2022-10-22T05:03:33;3.83;;;1.13;;
26963;SDS011;14521;48.148;-1.656;2022-10-22T05:06:55;7.18;;;1.00;;
26963;SDS011;14521;48.148;-1.656;2022-10-22T05:10:17;7.07;;;1.30;;
26963;SDS011;14521;48.148;-1.656;2022-10-22T05:13:39;6.57;;;1.23;;
26963;SDS011;14521;48.148;-1.656;2022-10-22T05:17:02;4.45;;;0.75;;
26963;SDS011;14521;48.148;-1.656;2022-10-22T05:20:24;4.85;;;1.10;;
26963;SDS011;14521;48.148;-1.656;2022-10-22T05:23:47;5.95;;;1.17;;
26963;SDS011;14521;48.148;-1.656;2022-10-22T05:27:10;3.30;;;0.87;;
26963;SDS011;14521;48.148;-1.656;2022-10-22T05:30:33;4.25;;;1.20;;
26963;SDS011;14521;48.148;-1.656;2022-10-22T05:33:55;3.70;;;0.88;;
26963;SDS011;14521;48.148;-1.656;2022-10-22T05:37:17;2.13;;;0.60;;
26963;SDS011;14521;48.148;-1.656;2022-10-22T05:40:39;2.03;;;0.98;;
26963;SDS011;14521;48.148;-1.656;2022-10-22T05:44:02;3.30;;;0.90;;
26963;SDS011;14521;48.148;-1.656;2022-10-22T05:47:25;4.22;;;1.50;;
26963;SDS011;14521;48.148;-1.656;2022-10-22T05:50:49;1.87;;;0.80;;
26963;SDS011;14521;48.148;-1.656;2022-10-22T05:54:16;4.30;;;0.90;;
26963;SDS011;14521;48.148;-1.656;2022-10-22T05:57:39;11.60;;;1.00;;
26963;SDS011;14521;48.148;-1.656;2022-10-22T06:01:02;3.38;;;1.08;;
26963;SDS011;14521;48.148;-1.656;2022-10-22T06:07:49;5.25;;;1.55;;
26963;SDS011;14521;48.148;-1.656;2022-10-22T06:11:11;5.80;;;1.25;;
26963;SDS011;14521;48.148;-1.656;2022-10-22T06:14:33;5.68;;;1.50;;
26963;SDS011;14521;48.148;-1.656;2022-10-22T06:17:55;4.80;;;1.20;;
26963;SDS011;14521;48.148;-1.656;2022-10-22T06:21:17;8.70;;;1.40;;
26963;SDS011;14521;48.148;-1.656;2022-10-22T06:24:40;6.93;;;1.30;;
26963;SDS011;14521;48.148;-1.656;2022-10-22T06:28:05;6.20;;;1.08;;
26963;SDS011;14521;48.148;-1.656;2022-10-22T06:31:28;7.80;;;1.60;;
26963;SDS011;14521;48.148;-1.656;2022-10-22T06:34:57;5.35;;;1.70;;
26963;SDS011;14521;48.148;-1.656;2022-10-22T06:38:19;6.85;;;1.90;;
26963;SDS011;14521;48.148;-1.656;2022-10-22T06:41:41;9.52;;;2.05;;
26963;SDS011;14521;48.148;-1.656;2022-10-22T06:45:03;10.38;;;1.50;;
26963;SDS011;14521;48.148;-1.656;2022-10-22T06:48:26;4.75;;;1.48;;
26963;SDS011;14521;48.148;-1.656;2022-10-22T06:51:49;5.10;;;1.30;;
26963;SDS011;14521;48.148;-1.656;2022-10-22T06:55:13;4.10;;;1.63;;
26963;SDS011;14521;48.148;-1.656;2022-10-22T06:58:36;7.43;;;1.70;;
26963;SDS011;14521;48.148;-1.656;2022-10-22T07:01:58;4.72;;;1.58;;
26963;SDS011;14521;48.148;-1.656;2022-10-22T07:05:20;5.38;;;1.58;;
26963;SDS011;14521;48.148;-1.656;2022-10-22T07:08:42;5.10;;;1.42;;
26963;SDS011;14521;48.148;-1.656;2022-10-22T07:12:05;3.95;;;1.40;;
26963;SDS011;14521;48.148;-1.656;2022-10-22T07:15:27;7.13;;;1.77;;
26963;SDS011;14521;48.148;-1.656;2022-10-22T07:18:49;4.32;;;1.50;;
26963;SDS011;14521;48.148;-1.656;2022-10-22T07:22:11;6.50;;;1.58;;
26963;SDS011;14521;48.148;-1.656;2022-10-22T07:25:33;5.22;;;1.40;;
26963;SDS011;14521;48.148;-1.656;2022-10-22T07:28:56;5.85;;;1.52;;
26963;SDS011;14521;48.148;-1.656;2022-10-22T07:32:18;4.80;;;1.40;;
26963;SDS011;14521;48.148;-1.656;2022-10-22T07:35:44;7.60;;;1.42;;
26963;SDS011;14521;48.148;-1.656;2022-10-22T07:39:06;9.20;;;1.33;;
26963;SDS011;14521;48.148;-1.656;2022-10-22T07:42:29;16.58;;;1.80;;
26963;SDS011;14521;48.148;-1.656;2022-10-22T07:45:51;8.80;;;1.67;;
26963;SDS011;14521;48.148;-1.656;2022-10-22T07:49:16;8.02;;;1.30;;
26963;SDS011;14521;48.148;-1.656;2022-10-22T07:52:38;7.78;;;1.63;;
26963;SDS011;14521;48.148;-1.656;2022-10-22T07:56:00;8.38;;;1.63;;
26963;SDS011;14521;48.148;-1.656;2022-10-22T07:59:23;8.05;;;1.70;;
26963;SDS011;14521;48.148;-1.656;2022-10-22T08:02:47;6.28;;;1.63;;
26963;SDS011;14521;48.148;-1.656;2022-10-22T08:06:11;5.22;;;1.35;;
26963;SDS011;14521;48.148;-1.656;2022-10-22T08:09:34;5.75;;;1.35;;
26963;SDS011;14521;48.148;-1.656;2022-10-22T08:12:56;4.60;;;1.33;;
26963;SDS011;14521;48.148;-1.656;2022-10-22T08:16:19;4.53;;;1.40;;
26963;SDS011;14521;48.148;-1.656;2022-10-22T08:19:41;5.85;;;1.30;;
26963;SDS011;14521;48.148;-1.656;2022-10-22T08:23:03;6.97;;;1.40;;
26963;SDS011;14521;48.148;-1.656;2022-10-22T08:26:25;7.35;;;1.80;;
26963;SDS011;14521;48.148;-1.656;2022-10-22T08:29:48;7.88;;;1.70;;
26963;SDS011;14521;48.148;-1.656;2022-10-22T08:33:10;6.25;;;1.20;;
26963;SDS011;14521;48.148;-1.656;2022-10-22T08:36:32;6.40;;;1.17;;
26963;SDS011;14521;48.148;-1.656;2022-10-22T08:39:54;11.20;;;1.30;;
26963;SDS011;14521;48.148;-1.656;2022-10-22T08:50:46;6.63;;;1.25;;
26963;SDS011;14521;48.148;-1.656;2022-10-22T08:57:58;7.40;;;1.38;;
26963;SDS011;14521;48.148;-1.656;2022-10-22T09:01:47;3.90;;;1.35;;
26963;SDS011;14521;48.148;-1.656;2022-10-22T09:08:59;7.95;;;1.40;;
26963;SDS011;14521;48.148;-1.656;2022-10-22T09:12:23;9.27;;;1.70;;
26963;SDS011;14521;48.148;-1.656;2022-10-22T09:15:54;6.38;;;1.42;;
26963;SDS011;14521;48.148;-1.656;2022-10-22T09:19:25;3.75;;;1.20;;
26963;SDS011;14521;48.148;-1.656;2022-10-22T09:27:18;4.35;;;1.65;;
26963;SDS011;14521;48.148;-1.656;2022-10-22T09:30:42;6.32;;;1.65;;
26963;SDS011;14521;48.148;-1.656;2022-10-22T09:34:04;6.35;;;1.38;;
26963;SDS011;14521;48.148;-1.656;2022-10-22T09:37:28;6.22;;;1.35;;
26963;SDS011;14521;48.148;-1.656;2022-10-22T09:40:51;2.75;;;1.10;;
26963;SDS011;14521;48.148;-1.656;2022-10-22T09:44:16;4.88;;;1.23;;
26963;SDS011;14521;48.148;-1.656;2022-10-22T09:47:40;5.57;;;1.25;;
26963;SDS011;14521;48.148;-1.656;2022-10-22T09:51:23;4.05;;;1.20;;
26963;SDS011;14521;48.148;-1.656;2022-10-22T09:54:56;4.72;;;1.42;;
26963;SDS011;14521;48.148;-1.656;2022-10-22T09:58:23;3.55;;;1.10;;
26963;SDS011;14521;48.148;-1.656;2022-10-22T10:01:45;5.47;;;1.08;;
26963;SDS011;14521;48.148;-1.656;2022-10-22T10:05:19;3.97;;;1.20;;
26963;SDS011;14521;48.148;-1.656;2022-10-22T10:08:45;4.38;;;1.30;;
26963;SDS011;14521;48.148;-1.656;2022-10-22T10:12:23;4.60;;;1.00;;
26963;SDS011;14521;48.148;-1.656;2022-10-22T10:30:21;4.88;;;0.90;;
26963;SDS011;14521;48.148;-1.656;2022-10-22T10:37:40;6.25;;;1.40;;
26963;SDS011;14521;48.148;-1.656;2022-10-22T10:41:18;3.05;;;1.05;;
26963;SDS011;14521;48.148;-1.656;2022-10-22T10:56:00;2.50;;;0.82;;
26963;SDS011;14521;48.148;-1.656;2022-10-22T11:03:09;3.10;;;1.00;;
26963;SDS011;14521;48.148;-1.656;2022-10-22T11:06:41;5.28;;;1.20;;
26963;SDS011;14521;48.148;-1.656;2022-10-22T11:10:08;2.13;;;0.80;;
26963;SDS011;14521;48.148;-1.656;2022-10-22T11:13:48;6.00;;;1.40;;
26963;SDS011;14521;48.148;-1.656;2022-10-22T11:17:16;2.95;;;1.15;;
26963;SDS011;14521;48.148;-1.656;2022-10-22T11:24:11;2.20;;;0.93;;
26963;SDS011;14521;48.148;-1.656;2022-10-22T11:27:42;6.65;;;1.17;;
26963;SDS011;14521;48.148;-1.656;2022-10-22T11:31:11;3.17;;;1.10;;
26963;SDS011;14521;48.148;-1.656;2022-10-22T11:34:49;4.78;;;1.25;;
26963;SDS011;14521;48.148;-1.656;2022-10-22T11:38:16;2.67;;;1.00;;
26963;SDS011;14521;48.148;-1.656;2022-10-22T11:41:43;4.40;;;1.25;;
26963;SDS011;14521;48.148;-1.656;2022-10-22T11:45:25;5.45;;;1.23;;
26963;SDS011;14521;48.148;-1.656;2022-10-22T11:49:00;3.72;;;1.08;;
26963;SDS011;14521;48.148;-1.656;2022-10-22T11:55:57;5.13;;;0.95;;
26963;SDS011;14521;48.148;-1.656;2022-10-22T12:06:57;3.28;;;1.00;;
26963;SDS011;14521;48.148;-1.656;2022-10-22T12:10:22;2.22;;;0.68;;
26963;SDS011;14521;48.148;-1.656;2022-10-22T12:17:22;2.45;;;0.80;;
26963;SDS011;14521;48.148;-1.656;2022-10-22T12:20:48;2.20;;;0.57;;
26963;SDS011;14521;48.148;-1.656;2022-10-22T12:24:13;6.65;;;1.20;;
26963;SDS011;14521;48.148;-1.656;2022-10-22T12:27:40;3.88;;;0.90;;
26963;SDS011;14521;48.148;-1.656;2022-10-22T12:31:02;3.10;;;1.08;;
26963;SDS011;14521;48.148;-1.656;2022-10-22T12:34:25;4.03;;;0.90;;
26963;SDS011;14521;48.148;-1.656;2022-10-22T12:37:50;1.65;;;0.88;;
26963;SDS011;14521;48.148;-1.656;2022-10-22T12:41:13;3.20;;;0.70;;
26963;SDS011;14521;48.148;-1.656;2022-10-22T12:44:35;2.47;;;1.15;;
26963;SDS011;14521;48.148;-1.656;2022-10-22T12:47:59;3.72;;;0.80;;
26963;SDS011;14521;48.148;-1.656;2022-10-22T12:51:27;1.58;;;0.80;;
26963;SDS011;14521;48.148;-1.656;2022-10-22T12:54:50;3.40;;;0.70;;
26963;SDS011;14521;48.148;-1.656;2022-10-22T12:58:15;4.25;;;0.70;;
26963;SDS011;14521;48.148;-1.656;2022-10-22T13:01:43;2.75;;;0.70;;
26963;SDS011;14521;48.148;-1.656;2022-10-22T13:05:14;5.43;;;0.77;;
26963;SDS011;14521;48.148;-1.656;2022-10-22T13:08:39;2.90;;;0.70;;
26963;SDS011;14521;48.148;-1.656;2022-10-22T13:12:02;2.05;;;0.50;;
26963;SDS011;14521;48.148;-1.656;2022-10-22T13:18:49;3.83;;;0.63;;
26963;SDS011;14521;48.148;-1.656;2022-10-22T13:26:03;4.15;;;0.60;;
26963;SDS011;14521;48.148;-1.656;2022-10-22T13:29:35;0.85;;;0.60;;
26963;SDS011;14521;48.148;-1.656;2022-10-22T13:33:20;1.42;;;0.68;;
26963;SDS011;14521;48.148;-1.656;2022-10-22T13:36:57;3.72;;;0.90;;
26963;SDS011;14521;48.148;-1.656;2022-10-22T13:40:19;1.55;;;0.70;;
26963;SDS011;14521;48.148;-1.656;2022-10-22T13:43:41;1.42;;;0.60;;
26963;SDS011;14521;48.148;-1.656;2022-10-22T13:47:07;1.30;;;0.50;;
26963;SDS011;14521;48.148;-1.656;2022-10-22T13:50:45;1.50;;;0.68;;
26963;SDS011;14521;48.148;-1.656;2022-10-22T13:54:25;2.95;;;0.85;;
26963;SDS011;14521;48.148;-1.656;2022-10-22T13:57:47;4.20;;;1.20;;
26963;SDS011;14521;48.148;-1.656;2022-10-22T14:01:20;4.28;;;1.00;;
26963;SDS011;14521;48.148;-1.656;2022-10-22T14:04:42;1.05;;;0.43;;
26963;SDS011;14521;48.148;-1.656;2022-10-22T14:08:08;2.03;;;0.75;;
26963;SDS011;14521;48.148;-1.656;2022-10-22T14:11:35;2.85;;;0.75;;
26963;SDS011;14521;48.148;-1.656;2022-10-22T14:14:58;1.88;;;0.65;;
26963;SDS011;14521;48.148;-1.656;2022-10-22T14:18:24;2.17;;;0.60;;
26963;SDS011;14521;48.148;-1.656;2022-10-22T14:21:49;1.02;;;0.63;;
26963;SDS011;14521;48.148;-1.656;2022-10-22T14:25:13;1.42;;;0.55;;
26963;SDS011;14521;48.148;-1.656;2022-10-22T14:28:40;1.25;;;0.40;;
26963;SDS011;14521;48.148;-1.656;2022-10-22T14:32:22;0.80;;;0.55;;
26963;SDS011;14521;48.148;-1.656;2022-10-22T14:35:44;2.42;;;0.50;;
26963;SDS011;14521;48.148;-1.656;2022-10-22T14:39:08;2.10;;;0.80;;
26963;SDS011;14521;48.148;-1.656;2022-10-22T14:42:31;2.45;;;0.65;;
26963;SDS011;14521;48.148;-1.656;2022-10-22T14:46:00;2.20;;;0.40;;
26963;SDS011;14521;48.148;-1.656;2022-10-22T14:49:23;2.75;;;0.63;;
26963;SDS011;14521;48.148;-1.656;2022-10-22T14:52:45;2.38;;;0.50;;
26963;SDS011;14521;48.148;-1.656;2022-10-22T14:56:10;1.70;;;0.68;;
26963;SDS011;14521;48.148;-1.656;2022-10-22T14:59:34;1.08;;;0.50;;
26963;SDS011;14521;48.148;-1.656;2022-10-22T15:02:57;0.77;;;0.40;;
26963;SDS011;14521;48.148;-1.656;2022-10-22T15:06:24;1.52;;;0.43;;
26963;SDS011;14521;48.148;-1.656;2022-10-22T15:09:47;1.67;;;0.57;;
26963;SDS011;14521;48.148;-1.656;2022-10-22T15:13:09;0.75;;;0.40;;
26963;SDS011;14521;48.148;-1.656;2022-10-22T15:16:31;1.55;;;0.57;;
26963;SDS011;14521;48.148;-1.656;2022-10-22T15:19:53;1.77;;;0.43;;
26963;SDS011;14521;48.148;-1.656;2022-10-22T15:23:16;0.38;;;0.20;;
26963;SDS011;14521;48.148;-1.656;2022-10-22T15:26:39;4.03;;;0.52;;
26963;SDS011;14521;48.148;-1.656;2022-10-22T15:30:01;1.40;;;0.70;;
26963;SDS011;14521;48.148;-1.656;2022-10-22T15:33:28;3.08;;;0.60;;
26963;SDS011;14521;48.148;-1.656;2022-10-22T15:36:51;1.63;;;0.60;;
26963;SDS011;14521;48.148;-1.656;2022-10-22T15:40:16;1.27;;;0.50;;
26963;SDS011;14521;48.148;-1.656;2022-10-22T15:43:38;1.48;;;0.65;;
26963;SDS011;14521;48.148;-1.656;2022-10-22T15:47:03;0.98;;;0.50;;
26963;SDS011;14521;48.148;-1.656;2022-10-22T15:50:27;1.98;;;0.90;;
26963;SDS011;14521;48.148;-1.656;2022-10-22T15:53:50;1.63;;;0.60;;
26963;SDS011;14521;48.148;-1.656;2022-10-22T15:57:13;2.00;;;0.50;;
26963;SDS011;14521;48.148;-1.656;2022-10-22T16:00:36;1.55;;;0.57;;
26963;SDS011;14521;48.148;-1.656;2022-10-22T16:03:58;1.30;;;0.40;;
26963;SDS011;14521;48.148;-1.656;2022-10-22T16:07:23;0.63;;;0.57;;
26963;SDS011;14521;48.148;-1.656;2022-10-22T16:10:46;1.27;;;0.60;;
26963;SDS011;14521;48.148;-1.656;2022-10-22T16:14:09;2.15;;;0.70;;
26963;SDS011;14521;48.148;-1.656;2022-10-22T16:17:33;5.43;;;0.85;;
26963;SDS011;14521;48.148;-1.656;2022-10-22T16:20:55;6.95;;;1.60;;
26963;SDS011;14521;48.148;-1.656;2022-10-22T16:24:18;2.85;;;1.98;;
26963;SDS011;14521;48.148;-1.656;2022-10-22T16:27:40;6.40;;;2.08;;
26963;SDS011;14521;48.148;-1.656;2022-10-22T16:31:03;3.40;;;1.50;;
26963;SDS011;14521;48.148;-1.656;2022-10-22T16:34:27;3.17;;;1.08;;
26963;SDS011;14521;48.148;-1.656;2022-10-22T16:37:49;7.88;;;1.48;;
26963;SDS011;14521;48.148;-1.656;2022-10-22T16:41:15;3.85;;;1.30;;
26963;SDS011;14521;48.148;-1.656;2022-10-22T16:44:39;4.07;;;1.30;;
26963;SDS011;14521;48.148;-1.656;2022-10-22T16:48:02;11.63;;;3.05;;
26963;SDS011;14521;48.148;-1.656;2022-10-22T16:51:25;5.53;;;1.65;;
26963;SDS011;14521;48.148;-1.656;2022-10-22T16:54:48;5.30;;;1.53;;
26963;SDS011;14521;48.148;-1.656;2022-10-22T16:58:10;4.18;;;1.58;;
26963;SDS011;14521;48.148;-1.656;2022-10-22T17:01:32;4.40;;;1.15;;
26963;SDS011;14521;48.148;-1.656;2022-10-22T17:05:01;5.25;;;1.55;;
26963;SDS011;14521;48.148;-1.656;2022-10-22T17:08:23;2.05;;;1.42;;
26963;SDS011;14521;48.148;-1.656;2022-10-22T17:11:45;4.50;;;1.58;;
26963;SDS011;14521;48.148;-1.656;2022-10-22T17:15:08;6.57;;;1.40;;
26963;SDS011;14521;48.148;-1.656;2022-10-22T17:18:30;4.72;;;1.42;;
26963;SDS011;14521;48.148;-1.656;2022-10-22T17:21:53;6.80;;;1.90;;
26963;SDS011;14521;48.148;-1.656;2022-10-22T17:25:16;10.13;;;1.60;;
26963;SDS011;14521;48.148;-1.656;2022-10-22T17:28:42;3.22;;;1.40;;
26963;SDS011;14521;48.148;-1.656;2022-10-22T17:32:05;3.58;;;1.60;;
26963;SDS011;14521;48.148;-1.656;2022-10-22T17:35:27;5.00;;;1.80;;
26963;SDS011;14521;48.148;-1.656;2022-10-22T17:38:53;13.75;;;2.22;;
26963;SDS011;14521;48.148;-1.656;2022-10-22T17:42:17;3.03;;;1.33;;
26963;SDS011;14521;48.148;-1.656;2022-10-22T17:45:39;2.95;;;1.35;;
26963;SDS011;14521;48.148;-1.656;2022-10-22T17:49:02;13.50;;;1.45;;
26963;SDS011;14521;48.148;-1.656;2022-10-22T17:52:27;6.43;;;1.50;;
26963;SDS011;14521;48.148;-1.656;2022-10-22T17:55:49;2.08;;;1.20;;
26963;SDS011;14521;48.148;-1.656;2022-10-22T17:59:18;2.95;;;1.50;;
26963;SDS011;14521;48.148;-1.656;2022-10-22T18:02:40;5.95;;;1.70;;
26963;SDS011;14521;48.148;-1.656;2022-10-22T18:06:05;4.75;;;1.30;;
26963;SDS011;14521;48.148;-1.656;2022-10-22T18:09:28;2.70;;;1.25;;
26963;SDS011;14521;48.148;-1.656;2022-10-22T18:12:50;2.53;;;1.20;;
26963;SDS011;14521;48.148;-1.656;2022-10-22T18:16:12;2.70;;;1.25;;
26963;SDS011;14521;48.148;-1.656;2022-10-22T18:19:34;2.97;;;1.30;;
26963;SDS011;14521;48.148;-1.656;2022-10-22T18:22:56;3.70;;;1.02;;
26963;SDS011;14521;48.148;-1.656;2022-10-22T18:26:19;3.17;;;1.20;;
26963;SDS011;14521;48.148;-1.656;2022-10-22T18:29:50;3.08;;;1.33;;
26963;SDS011;14521;48.148;-1.656;2022-10-22T18:33:12;4.63;;;1.30;;
26963;SDS011;14521;48.148;-1.656;2022-10-22T18:36:36;2.47;;;1.30;;
26963;SDS011;14521;48.148;-1.656;2022-10-22T18:39:58;2.55;;;1.40;;
26963;SDS011;14521;48.148;-1.656;2022-10-22T18:43:21;2.50;;;1.35;;
26963;SDS011;14521;48.148;-1.656;2022-10-22T18:46:43;2.17;;;1.35;;
26963;SDS011;14521;48.148;-1.656;2022-10-22T18:50:05;3.70;;;1.40;;
26963;SDS011;14521;48.148;-1.656;2022-10-22T18:53:28;1.60;;;1.13;;
26963;SDS011;14521;48.148;-1.656;2022-10-22T18:56:51;3.97;;;1.20;;
26963;SDS011;14521;48.148;-1.656;2022-10-22T19:00:16;1.98;;;1.10;;
26963;SDS011;14521;48.148;-1.656;2022-10-22T19:03:39;5.68;;;1.35;;
26963;SDS011;14521;48.148;-1.656;2022-10-22T19:07:02;4.47;;;1.23;;
26963;SDS011;14521;48.148;-1.656;2022-10-22T19:10:25;2.63;;;1.13;;
26963;SDS011;14521;48.148;-1.656;2022-10-22T19:13:48;2.97;;;1.15;;
26963;SDS011;14521;48.148;-1.656;2022-10-22T19:17:10;1.88;;;1.15;;
26963;SDS011;14521;48.148;-1.656;2022-10-22T19:20:33;3.97;;;1.25;;
26963;SDS011;14521;48.148;-1.656;2022-10-22T19:23:56;2.00;;;1.05;;
26963;SDS011;14521;48.148;-1.656;2022-10-22T19:27:20;3.20;;;1.10;;
26963;SDS011;14521;48.148;-1.656;2022-10-22T19:30:42;1.73;;;1.35;;
26963;SDS011;14521;48.148;-1.656;2022-10-22T19:34:05;4.22;;;1.58;;
26963;SDS011;14521;48.148;-1.656;2022-10-22T19:37:27;2.60;;;0.95;;
26963;SDS011;14521;48.148;-1.656;2022-10-22T19:40:49;2.92;;;1.35;;
26963;SDS011;14521;48.148;-1.656;2022-10-22T19:44:12;7.43;;;1.10;;
26963;SDS011;14521;48.148;-1.656;2022-10-22T19:47:34;1.73;;;1.20;;
26963;SDS011;14521;48.148;-1.656;2022-10-22T19:51:00;2.00;;;0.93;;
26963;SDS011;14521;48.148;-1.656;2022-10-22T19:54:24;2.13;;;1.13;;
26963;SDS011;14521;48.148;-1.656;2022-10-22T19:57:47;4.82;;;0.90;;
26963;SDS011;14521;48.148;-1.656;2022-10-22T20:01:10;8.45;;;1.30;;
26963;SDS011;14521;48.148;-1.656;2022-10-22T20:04:33;2.17;;;0.88;;
26963;SDS011;14521;48.148;-1.656;2022-10-22T20:07:56;2.80;;;0.90;;
26963;SDS011;14521;48.148;-1.656;2022-10-22T20:11:20;2.72;;;1.10;;
26963;SDS011;14521;48.148;-1.656;2022-10-22T20:18:06;1.00;;;0.70;;
26963;SDS011;14521;48.148;-1.656;2022-10-22T20:21:28;1.55;;;1.00;;
26963;SDS011;14521;48.148;-1.656;2022-10-22T20:24:51;2.25;;;0.90;;
26963;SDS011;14521;48.148;-1.656;2022-10-22T20:28:13;3.70;;;1.10;;
26963;SDS011;14521;48.148;-1.656;2022-10-22T20:31:36;1.77;;;0.77;;
26963;SDS011;14521;48.148;-1.656;2022-10-22T20:34:58;2.88;;;1.02;;
26963;SDS011;14521;48.148;-1.656;2022-10-22T20:38:20;2.08;;;0.98;;
26963;SDS011;14521;48.148;-1.656;2022-10-22T20:41:42;3.45;;;0.90;;
26963;SDS011;14521;48.148;-1.656;2022-10-22T20:45:05;1.83;;;1.00;;
26963;SDS011;14521;48.148;-1.656;2022-10-22T20:48:27;1.25;;;0.90;;
26963;SDS011;14521;48.148;-1.656;2022-10-22T20:51:51;1.38;;;0.70;;
26963;SDS011;14521;48.148;-1.656;2022-10-22T20:55:14;0.93;;;0.82;;
26963;SDS011;14521;48.148;-1.656;2022-10-22T20:58:41;1.58;;;0.80;;
26963;SDS011;14521;48.148;-1.656;2022-10-22T21:02:08;3.60;;;0.90;;
26963;SDS011;14521;48.148;-1.656;2022-10-22T21:05:32;1.77;;;1.00;;
26963;SDS011;14521;48.148;-1.656;2022-10-22T21:08:55;1.58;;;0.80;;
26963;SDS011;14521;48.148;-1.656;2022-10-22T21:12:17;1.73;;;0.90;;
26963;SDS011;14521;48.148;-1.656;2022-10-22T21:15:40;1.58;;;0.80;;
26963;SDS011;14521;48.148;-1.656;2022-10-22T21:19:02;1.45;;;0.80;;
26963;SDS011;14521;48.148;-1.656;2022-10-22T21:22:24;1.58;;;0.65;;
26963;SDS011;14521;48.148;-1.656;2022-10-22T21:25:53;1.30;;;0.70;;
26963;SDS011;14521;48.148;-1.656;2022-10-22T21:29:17;1.65;;;0.90;;
26963;SDS011;14521;48.148;-1.656;2022-10-22T21:32:40;0.82;;;0.70;;
26963;SDS011;14521;48.148;-1.656;2022-10-22T21:36:03;1.52;;;0.68;;
26963;SDS011;14521;48.148;-1.656;2022-10-22T21:39:27;2.80;;;0.63;;
26963;SDS011;14521;48.148;-1.656;2022-10-22T21:42:49;1.17;;;0.55;;
26963;SDS011;14521;48.148;-1.656;2022-10-22T21:46:21;1.75;;;0.52;;
26963;SDS011;14521;48.148;-1.656;2022-10-22T21:49:45;1.08;;;0.68;;
26963;SDS011;14521;48.148;-1.656;2022-10-22T21:53:07;3.95;;;0.95;;
26963;SDS011;14521;48.148;-1.656;2022-10-22T21:56:34;3.08;;;0.80;;